createdAt,value
2023-05-22T00:01:39.007Z,23.00
2023-05-22T00:04:05.636Z,23.00
2023-05-22T00:06:33.965Z,22.90
2023-05-22T00:09:00.747Z,22.90
2023-05-22T00:11:27.423Z,23.00
2023-05-22T00:13:54.137Z,23.10
2023-05-22T00:16:20.762Z,22.90
2023-05-22T00:18:47.469Z,22.80
2023-05-22T00:21:14.328Z,23.00
2023-05-22T00:23:41.356Z,23.10
2023-05-22T00:26:07.895Z,22.90
2023-05-22T00:28:34.492Z,22.70
2023-05-22T00:31:01.158Z,22.90
2023-05-22T00:33:27.785Z,23.00
2023-05-22T00:35:54.472Z,22.90
2023-05-22T00:38:30.583Z,22.90
2023-05-22T00:40:57.313Z,22.90
2023-05-22T00:43:23.828Z,22.80
2023-05-22T00:45:50.788Z,22.70
2023-05-22T00:48:17.326Z,22.50
2023-05-22T00:50:43.963Z,22.50
2023-05-22T00:53:10.747Z,22.40
2023-05-22T00:55:37.414Z,22.40
2023-05-22T00:58:07.675Z,22.50
2023-05-22T01:00:36.898Z,22.50
2023-05-22T01:03:05.588Z,22.40
2023-05-22T01:05:32.272Z,22.50
2023-05-22T01:07:58.872Z,22.30
2023-05-22T01:10:26.020Z,22.40
2023-05-22T01:13:04.979Z,22.20
2023-05-22T01:15:49.886Z,22.10
2023-05-22T01:18:29.215Z,22.20
2023-05-22T01:21:04.857Z,22.10
2023-05-22T01:24:06.536Z,22.20
2023-05-22T01:26:57.576Z,21.90
2023-05-22T01:29:44.325Z,21.70
2023-05-22T01:32:13.479Z,21.70
2023-05-22T01:34:42.984Z,21.50
2023-05-22T01:37:09.926Z,21.70
2023-05-22T01:39:37.249Z,21.90
2023-05-22T01:42:04.570Z,21.80
2023-05-22T01:44:31.506Z,21.80
2023-05-22T01:47:00.520Z,21.40
2023-05-22T01:49:28.245Z,21.20
2023-05-22T01:52:02.669Z,21.50
2023-05-22T01:54:37.751Z,21.40
2023-05-22T01:57:33.655Z,21.30
2023-05-22T02:00:16.047Z,21.20
2023-05-22T02:02:46.087Z,21.60
2023-05-22T02:05:13.691Z,21.50
2023-05-22T02:07:42.248Z,21.20
2023-05-22T02:10:10.900Z,21.20
2023-05-22T02:12:37.996Z,21.20
2023-05-22T02:15:06.119Z,21.40
2023-05-22T02:17:40.354Z,21.50
2023-05-22T02:20:16.541Z,21.40
2023-05-22T02:22:45.142Z,21.20
2023-05-22T02:25:16.787Z,21.40
2023-05-22T02:27:45.810Z,21.50
2023-05-22T02:30:13.381Z,21.30
2023-05-22T02:32:41.721Z,21.10
2023-05-22T02:35:08.864Z,21.00
2023-05-22T02:37:35.620Z,21.00
2023-05-22T02:40:02.364Z,21.00
2023-05-22T02:42:30.026Z,20.90
2023-05-22T02:44:56.771Z,21.00
2023-05-22T02:47:23.436Z,21.00
2023-05-22T02:49:50.725Z,20.80
2023-05-22T02:52:17.536Z,20.90
2023-05-22T02:54:44.383Z,20.80
2023-05-22T02:57:10.966Z,20.50
2023-05-22T02:59:38.719Z,20.60
2023-05-22T03:02:05.792Z,20.60
2023-05-22T03:04:32.911Z,20.50
2023-05-22T03:07:01.465Z,20.40
2023-05-22T03:09:28.145Z,20.80
2023-05-22T03:11:54.959Z,20.90
2023-05-22T03:14:21.518Z,20.80
2023-05-22T03:16:48.369Z,20.80
2023-05-22T03:19:16.334Z,20.70
2023-05-22T03:21:45.932Z,20.80
2023-05-22T03:24:13.104Z,20.90
2023-05-22T03:26:39.836Z,20.70
2023-05-22T03:29:09.600Z,20.60
2023-05-22T03:31:39.749Z,20.60
2023-05-22T03:34:10.300Z,20.70
2023-05-22T03:36:37.851Z,20.70
2023-05-22T03:39:05.355Z,20.70
2023-05-22T03:41:37.068Z,20.60
2023-05-22T03:44:04.586Z,20.60
2023-05-22T03:46:32.429Z,20.40
2023-05-22T03:48:59.155Z,20.40
2023-05-22T03:51:25.741Z,20.40
2023-05-22T03:53:53.730Z,20.50
2023-05-22T03:56:21.286Z,20.50
2023-05-22T03:58:48.832Z,20.30
2023-05-22T04:01:16.906Z,20.30
2023-05-22T04:03:43.764Z,20.20
2023-05-22T04:06:10.900Z,20.30
2023-05-22T04:08:39.504Z,20.40
2023-05-22T04:11:06.149Z,20.20
2023-05-22T04:13:33.139Z,20.50
2023-05-22T04:16:01.950Z,20.50
2023-05-22T04:18:28.855Z,20.40
2023-05-22T04:20:57.512Z,20.50
2023-05-22T04:23:24.238Z,20.30
2023-05-22T04:25:51.648Z,20.10
2023-05-22T04:28:22.682Z,20.30
2023-05-22T04:30:49.632Z,20.30
2023-05-22T04:33:18.285Z,20.40
2023-05-22T04:35:45.085Z,20.00
2023-05-22T04:38:11.738Z,19.90
2023-05-22T04:40:38.663Z,19.70
2023-05-22T04:43:05.583Z,20.00
2023-05-22T04:45:32.976Z,20.30
2023-05-22T04:48:02.430Z,20.30
2023-05-22T04:50:33.005Z,20.30
2023-05-22T04:53:00.069Z,20.20
2023-05-22T04:55:26.732Z,20.00
2023-05-22T04:57:53.678Z,19.90
2023-05-22T05:00:26.293Z,19.90
2023-05-22T05:02:53.448Z,20.00
2023-05-22T05:05:20.224Z,20.10
2023-05-22T05:07:49.945Z,19.90
2023-05-22T05:10:17.369Z,20.00
2023-05-22T05:12:44.174Z,19.90
2023-05-22T05:15:11.443Z,20.00
2023-05-22T05:17:38.389Z,19.70
2023-05-22T05:20:07.332Z,19.90
2023-05-22T05:22:34.407Z,20.00
2023-05-22T05:25:03.672Z,20.10
2023-05-22T05:27:30.477Z,20.30
2023-05-22T05:29:57.312Z,20.10
2023-05-22T05:32:30.369Z,20.50
2023-05-22T05:35:08.102Z,20.50
2023-05-22T05:37:45.041Z,20.30
2023-05-22T05:40:13.056Z,20.10
2023-05-22T05:42:44.694Z,20.10
2023-05-22T05:45:13.613Z,20.30
2023-05-22T05:47:40.908Z,20.40
2023-05-22T05:50:08.153Z,20.60
2023-05-22T05:52:35.691Z,20.50
2023-05-22T05:55:09.267Z,20.40
2023-05-22T05:57:36.088Z,20.30
2023-05-22T06:00:05.577Z,20.20
2023-05-22T06:02:41.865Z,20.20
2023-05-22T06:05:21.860Z,20.40
2023-05-22T06:07:52.828Z,20.50
2023-05-22T06:10:19.638Z,20.80
2023-05-22T06:12:57.974Z,21.10
2023-05-22T06:15:25.416Z,21.10
2023-05-22T06:17:52.138Z,21.10
2023-05-22T06:20:19.885Z,20.90
2023-05-22T06:22:46.637Z,20.90
2023-05-22T06:25:13.385Z,21.00
2023-05-22T06:27:40.039Z,20.90
2023-05-22T06:30:07.534Z,21.20
2023-05-22T06:32:38.517Z,21.20
2023-05-22T06:35:06.854Z,21.20
2023-05-22T06:37:35.610Z,21.50
2023-05-22T06:40:03.597Z,21.40
2023-05-22T06:42:59.612Z,21.40
2023-05-22T06:45:37.461Z,21.60
2023-05-22T06:48:20.755Z,21.60
2023-05-22T06:51:04.958Z,22.00
2023-05-22T06:53:31.978Z,21.80
2023-05-22T06:55:58.650Z,21.80
2023-05-22T06:58:47.427Z,21.90
2023-05-22T07:01:15.010Z,22.10
2023-05-22T07:03:49.430Z,22.10
2023-05-22T07:06:38.780Z,22.30
2023-05-22T07:09:06.223Z,22.30
2023-05-22T07:11:33.534Z,22.40
2023-05-22T07:14:03.992Z,22.30
2023-05-22T07:16:31.463Z,22.60
2023-05-22T07:18:58.694Z,22.80
2023-05-22T07:21:25.899Z,22.90
2023-05-22T07:23:53.446Z,23.10
2023-05-22T07:26:22.482Z,23.30
2023-05-22T07:28:57.826Z,23.40
2023-05-22T07:31:24.546Z,23.50
2023-05-22T07:33:52.158Z,23.70
2023-05-22T07:36:19.105Z,23.70
2023-05-22T07:38:46.495Z,23.60
2023-05-22T07:41:13.728Z,24.10
2023-05-22T07:43:40.533Z,23.90
2023-05-22T07:46:09.429Z,23.50
2023-05-22T07:48:43.841Z,23.80
2023-05-22T07:51:10.764Z,23.90
2023-05-22T07:53:39.387Z,24.10
2023-05-22T07:56:06.644Z,24.20
2023-05-22T07:58:34.590Z,24.20
2023-05-22T08:01:01.857Z,24.50
2023-05-22T08:03:28.691Z,24.80
2023-05-22T08:05:55.528Z,24.80
2023-05-22T08:08:22.319Z,24.90
2023-05-22T08:11:02.958Z,25.20
2023-05-22T08:13:30.625Z,25.10
2023-05-22T08:16:00.280Z,25.20
2023-05-22T08:18:29.106Z,25.40
2023-05-22T08:20:56.309Z,25.50
2023-05-22T08:23:22.968Z,25.50
2023-05-22T08:25:50.235Z,25.40
2023-05-22T08:28:17.253Z,25.70
2023-05-22T08:30:44.053Z,25.70
2023-05-22T08:33:11.794Z,26.00
2023-05-22T08:35:38.573Z,26.00
2023-05-22T08:38:05.161Z,26.00
2023-05-22T08:40:37.103Z,26.50
2023-05-22T08:43:07.350Z,26.50
2023-05-22T08:45:34.632Z,26.50
2023-05-22T08:48:05.897Z,26.20
2023-05-22T08:50:32.778Z,26.60
2023-05-22T08:53:04.355Z,26.60
2023-05-22T08:55:31.069Z,26.50
2023-05-22T08:57:57.794Z,25.90
2023-05-22T09:00:24.459Z,26.10
2023-05-22T09:02:52.321Z,26.30
2023-05-22T09:05:19.049Z,26.30
2023-05-22T09:07:45.864Z,26.10
2023-05-22T09:10:12.421Z,26.40
2023-05-22T09:12:39.092Z,26.60
2023-05-22T09:15:12.038Z,27.00
2023-05-22T09:17:40.577Z,27.20
2023-05-22T09:20:07.832Z,27.30
2023-05-22T09:22:38.403Z,27.10
2023-05-22T09:25:06.873Z,26.90
2023-05-22T09:27:34.154Z,26.80
2023-05-22T09:30:01.104Z,26.80
2023-05-22T09:32:31.217Z,26.90
2023-05-22T09:35:04.817Z,27.00
2023-05-22T09:37:35.736Z,27.30
2023-05-22T09:40:11.764Z,27.90
2023-05-22T09:42:38.392Z,28.00
2023-05-22T09:45:06.485Z,27.50
2023-05-22T09:47:36.633Z,27.40
2023-05-22T09:50:06.486Z,27.50
2023-05-22T09:52:37.161Z,27.50
2023-05-22T09:55:08.600Z,27.30
2023-05-22T09:57:44.037Z,27.50
2023-05-22T10:00:14.444Z,27.70
2023-05-22T10:02:54.085Z,27.70
2023-05-22T10:05:21.974Z,27.50
2023-05-22T10:07:54.820Z,27.20
2023-05-22T10:10:23.119Z,27.60
2023-05-22T10:12:55.916Z,27.30
2023-05-22T10:15:23.181Z,27.30
2023-05-22T10:17:50.670Z,27.50
2023-05-22T10:20:17.529Z,27.20
2023-05-22T10:22:44.548Z,27.70
2023-05-22T10:25:11.656Z,27.60
2023-05-22T10:27:39.088Z,27.60
2023-05-22T10:30:15.857Z,27.40
2023-05-22T10:33:18.318Z,27.70
2023-05-22T10:35:57.028Z,27.20
2023-05-22T10:39:01.039Z,27.90
2023-05-22T10:41:27.761Z,28.50
2023-05-22T10:43:56.848Z,28.80
2023-05-22T10:46:23.788Z,28.20
2023-05-22T10:48:54.165Z,27.70
2023-05-22T10:51:23.891Z,27.90
2023-05-22T10:54:05.440Z,27.50
2023-05-22T10:56:35.933Z,28.20
2023-05-22T10:59:10.280Z,28.80
2023-05-22T11:01:38.616Z,29.30
2023-05-22T11:04:25.040Z,28.90
2023-05-22T11:07:05.092Z,29.30
2023-05-22T11:09:33.577Z,28.60
2023-05-22T11:12:20.271Z,28.30
2023-05-22T11:14:54.379Z,28.20
2023-05-22T11:17:28.070Z,28.60
2023-05-22T11:20:01.814Z,28.60
2023-05-22T11:22:33.460Z,28.60
2023-05-22T11:25:00.235Z,28.60
2023-05-22T11:27:27.312Z,29.10
2023-05-22T11:29:54.475Z,29.40
2023-05-22T11:32:22.391Z,29.20
2023-05-22T11:34:50.577Z,29.30
2023-05-22T11:37:20.744Z,29.10
2023-05-22T11:39:57.937Z,29.10
2023-05-22T11:42:25.203Z,29.10
2023-05-22T11:44:51.776Z,29.20
2023-05-22T11:47:18.557Z,28.90
2023-05-22T11:49:45.216Z,29.30
2023-05-22T11:52:11.805Z,29.20
2023-05-22T11:54:39.080Z,29.10
2023-05-22T11:57:09.124Z,29.40
2023-05-22T11:59:36.080Z,29.60
2023-05-22T12:02:02.802Z,29.30
2023-05-22T12:04:29.672Z,29.30
2023-05-22T12:06:56.644Z,29.00
2023-05-22T12:09:23.434Z,29.00
2023-05-22T12:11:50.051Z,28.80
2023-05-22T12:14:16.748Z,29.10
2023-05-22T12:16:44.529Z,29.30
2023-05-22T12:19:12.359Z,29.20
2023-05-22T12:21:40.986Z,29.10
2023-05-22T12:24:08.371Z,29.00
2023-05-22T12:26:35.967Z,29.40
2023-05-22T12:29:04.172Z,29.70
2023-05-22T12:31:36.239Z,29.80
2023-05-22T12:34:05.634Z,30.20
2023-05-22T12:36:39.640Z,30.30
2023-05-22T12:39:10.199Z,30.40
2023-05-22T12:41:37.736Z,30.30
2023-05-22T12:44:04.585Z,29.90
2023-05-22T12:46:32.003Z,29.80
2023-05-22T12:48:59.735Z,30.10
2023-05-22T12:51:29.733Z,30.10
2023-05-22T12:53:57.320Z,30.40
2023-05-22T12:56:24.075Z,30.70
2023-05-22T12:58:50.823Z,30.30
2023-05-22T13:01:17.684Z,30.40
2023-05-22T13:03:45.574Z,30.60
2023-05-22T13:06:12.485Z,30.30
2023-05-22T13:08:39.253Z,30.10
2023-05-22T13:11:06.060Z,30.60
2023-05-22T13:13:32.854Z,30.70
2023-05-22T13:15:59.726Z,31.00
2023-05-22T13:18:26.410Z,31.30
2023-05-22T13:20:53.311Z,31.10
2023-05-22T13:23:19.932Z,31.00
2023-05-22T13:25:46.508Z,31.30
2023-05-22T13:28:13.073Z,30.50
2023-05-22T13:30:40.183Z,30.70
2023-05-22T13:33:07.017Z,30.60
2023-05-22T13:35:33.629Z,30.30
2023-05-22T13:38:00.279Z,30.50
2023-05-22T13:40:26.871Z,30.60
2023-05-22T13:42:53.501Z,30.60
2023-05-22T13:45:20.452Z,30.70
2023-05-22T13:47:47.123Z,30.30
2023-05-22T13:50:13.776Z,30.30
2023-05-22T13:52:40.819Z,30.40
2023-05-22T13:55:07.756Z,31.20
2023-05-22T13:57:34.555Z,31.60
2023-05-22T14:00:01.096Z,31.70
2023-05-22T14:02:27.783Z,31.60
2023-05-22T14:04:54.414Z,32.20
2023-05-22T14:07:21.064Z,32.00
2023-05-22T14:09:47.710Z,31.80
2023-05-22T14:12:14.380Z,31.80
2023-05-22T14:14:40.977Z,32.00
2023-05-22T14:17:08.558Z,32.40
2023-05-22T14:19:35.638Z,32.20
2023-05-22T14:22:02.356Z,32.00
2023-05-22T14:24:29.041Z,32.00
2023-05-22T14:26:57.949Z,31.80
2023-05-22T14:29:25.814Z,31.80
2023-05-22T14:31:54.878Z,31.30
2023-05-22T14:34:24.190Z,31.20
2023-05-22T14:36:50.933Z,31.30
2023-05-22T14:39:17.506Z,31.00
2023-05-22T14:41:44.117Z,30.90
2023-05-22T14:44:10.686Z,30.80
2023-05-22T14:46:37.391Z,29.90
2023-05-22T14:49:03.958Z,29.60
2023-05-22T14:51:30.810Z,29.20
2023-05-22T14:53:57.742Z,28.90
2023-05-22T14:56:24.677Z,28.30
2023-05-22T14:58:51.206Z,28.50
2023-05-22T15:01:17.780Z,28.60
2023-05-22T15:03:44.585Z,28.50
2023-05-22T15:06:11.132Z,28.60
2023-05-22T15:08:37.729Z,28.40
2023-05-22T15:11:04.365Z,28.60
2023-05-22T15:13:30.911Z,28.50
2023-05-22T15:15:58.346Z,28.50
2023-05-22T15:18:26.982Z,28.50
2023-05-22T15:20:53.697Z,28.20
2023-05-22T15:23:25.017Z,28.20
2023-05-22T15:25:54.409Z,28.40
2023-05-22T15:28:21.615Z,28.60
2023-05-22T15:30:48.307Z,28.40
2023-05-22T15:33:15.219Z,28.20
2023-05-22T15:35:43.897Z,28.20
2023-05-22T15:38:12.478Z,28.10
2023-05-22T15:40:40.068Z,28.20
2023-05-22T15:43:06.968Z,27.90
2023-05-22T15:45:37.326Z,27.80
2023-05-22T15:48:05.115Z,27.90
2023-05-22T15:50:33.232Z,27.90
2023-05-22T15:53:00.746Z,27.80
2023-05-22T15:55:27.277Z,27.80
2023-05-22T15:57:53.921Z,27.90
2023-05-22T16:00:21.443Z,28.10
2023-05-22T16:02:48.874Z,28.10
2023-05-22T16:05:15.721Z,27.60
2023-05-22T16:07:42.363Z,27.60
2023-05-22T16:10:09.287Z,27.50
2023-05-22T16:12:35.962Z,27.60
2023-05-22T16:15:04.478Z,27.50
2023-05-22T16:17:32.610Z,27.30
2023-05-22T16:19:59.207Z,27.20
2023-05-22T16:22:33.031Z,27.10
2023-05-22T16:25:07.663Z,27.10
2023-05-22T16:27:34.289Z,27.00
2023-05-22T16:30:02.572Z,27.10
2023-05-22T16:32:29.670Z,27.00
2023-05-22T16:34:56.282Z,26.90
2023-05-22T16:37:23.781Z,27.00
2023-05-22T16:39:50.515Z,27.00
2023-05-22T16:42:17.542Z,27.10
2023-05-22T16:44:44.313Z,27.00
2023-05-22T16:47:11.738Z,27.10
2023-05-22T16:49:39.893Z,27.10
2023-05-22T16:52:06.457Z,27.00
2023-05-22T16:54:33.016Z,27.00
2023-05-22T16:56:59.694Z,26.90
2023-05-22T16:59:26.458Z,27.10
2023-05-22T17:01:53.216Z,27.10
2023-05-22T17:04:20.654Z,26.90
2023-05-22T17:06:48.062Z,26.90
2023-05-22T17:09:14.790Z,26.80
2023-05-22T17:11:41.419Z,26.80
2023-05-22T17:14:07.994Z,26.80
2023-05-22T17:16:35.783Z,26.90
2023-05-22T17:19:02.497Z,26.80
2023-05-22T17:21:30.618Z,26.90
2023-05-22T17:23:57.456Z,26.80
2023-05-22T17:26:23.988Z,26.90
2023-05-22T17:28:50.622Z,26.90
2023-05-22T17:31:17.325Z,26.90
2023-05-22T17:33:44.009Z,26.80
2023-05-22T17:36:10.653Z,26.80
2023-05-22T17:38:37.409Z,26.70
2023-05-22T17:41:04.084Z,26.50
2023-05-22T17:43:30.692Z,26.70
2023-05-22T17:45:57.351Z,26.60
2023-05-22T17:48:26.899Z,26.50
2023-05-22T17:50:53.925Z,26.60
2023-05-22T17:53:21.080Z,26.60
2023-05-22T17:55:49.056Z,26.40
2023-05-22T17:58:16.528Z,26.30
2023-05-22T18:00:43.575Z,26.40
2023-05-22T18:03:10.306Z,26.50
2023-05-22T18:05:37.017Z,26.50
2023-05-22T18:08:03.638Z,26.40
2023-05-22T18:10:30.359Z,26.50
2023-05-22T18:12:56.926Z,26.60
2023-05-22T18:15:24.606Z,26.60
2023-05-22T18:17:51.628Z,26.60
2023-05-22T18:20:18.453Z,26.40
2023-05-22T18:22:44.960Z,26.50
2023-05-22T18:25:12.236Z,26.30
2023-05-22T18:27:38.808Z,26.20
2023-05-22T18:30:06.098Z,26.30
2023-05-22T18:32:32.730Z,26.20
2023-05-22T18:35:00.414Z,26.20
2023-05-22T18:37:27.075Z,26.20
2023-05-22T18:39:53.714Z,26.30
2023-05-22T18:42:20.404Z,26.20
2023-05-22T18:44:49.002Z,26.20
2023-05-22T18:47:16.180Z,26.40
2023-05-22T18:49:43.036Z,26.40
2023-05-22T18:52:09.619Z,26.20
2023-05-22T18:54:36.281Z,26.40
2023-05-22T18:57:03.078Z,26.20
2023-05-22T18:59:29.604Z,26.20
2023-05-22T19:01:56.125Z,26.00
2023-05-22T19:04:22.695Z,26.00
2023-05-22T19:06:49.309Z,26.10
2023-05-22T19:09:16.555Z,26.10
2023-05-22T19:11:43.304Z,26.00
2023-05-22T19:14:09.880Z,26.00
2023-05-22T19:16:36.429Z,25.80
2023-05-22T19:19:03.210Z,25.80
2023-05-22T19:21:29.909Z,25.90
2023-05-22T19:23:56.501Z,25.80
2023-05-22T19:26:23.140Z,25.70
2023-05-22T19:28:49.940Z,25.80
2023-05-22T19:31:16.594Z,25.70
2023-05-22T19:33:43.341Z,25.70
2023-05-22T19:36:09.898Z,25.50
2023-05-22T19:38:36.613Z,25.30
2023-05-22T19:41:03.291Z,25.10
2023-05-22T19:43:31.325Z,25.30
2023-05-22T19:45:58.353Z,24.80
2023-05-22T19:48:25.637Z,24.90
2023-05-22T19:50:52.367Z,25.10
2023-05-22T19:53:19.048Z,25.30
2023-05-22T19:55:46.107Z,25.30
2023-05-22T19:58:12.737Z,25.10
2023-05-22T20:00:40.898Z,25.00
2023-05-22T20:03:08.095Z,25.10
2023-05-22T20:05:34.932Z,25.00
2023-05-22T20:08:01.658Z,25.10
2023-05-22T20:10:28.271Z,25.10
2023-05-22T20:12:56.281Z,25.20
2023-05-22T20:15:24.766Z,25.20
2023-05-22T20:17:53.408Z,25.30
2023-05-22T20:20:20.917Z,25.20
2023-05-22T20:22:47.567Z,24.90
2023-05-22T20:25:14.175Z,24.90
2023-05-22T20:27:40.801Z,24.90
2023-05-22T20:30:11.215Z,25.00
2023-05-22T20:32:39.174Z,24.90
2023-05-22T20:35:13.064Z,24.80
2023-05-22T20:37:40.996Z,24.70
2023-05-22T20:40:09.412Z,24.70
2023-05-22T20:42:37.404Z,24.60
2023-05-22T20:45:05.362Z,24.70
2023-05-22T20:47:31.938Z,24.20
2023-05-22T20:49:58.524Z,24.30
2023-05-22T20:52:25.551Z,24.40
2023-05-22T20:54:52.093Z,24.20
2023-05-22T20:57:18.627Z,23.90
2023-05-22T20:59:45.167Z,23.80
2023-05-22T21:02:11.736Z,23.70
2023-05-22T21:04:38.304Z,23.90
2023-05-22T21:07:05.078Z,24.10
2023-05-22T21:09:31.657Z,24.40
2023-05-22T21:11:58.278Z,24.40
2023-05-22T21:14:24.912Z,24.20
2023-05-22T21:16:51.552Z,24.30
2023-05-22T21:19:18.285Z,24.00
2023-05-22T21:21:44.947Z,23.90
2023-05-22T21:24:11.533Z,24.00
2023-05-22T21:26:38.359Z,24.00
2023-05-22T21:29:05.241Z,23.90
2023-05-22T21:31:35.297Z,23.80
2023-05-22T21:34:02.481Z,23.90
2023-05-22T21:36:29.053Z,23.80
2023-05-22T21:38:57.599Z,23.50
2023-05-22T21:41:24.186Z,23.60
2023-05-22T21:43:50.792Z,23.40
2023-05-22T21:46:17.415Z,23.20
2023-05-22T21:48:44.038Z,23.00
2023-05-22T21:51:10.618Z,22.80
2023-05-22T21:53:37.139Z,23.00
2023-05-22T21:56:03.708Z,23.00
2023-05-22T21:58:30.288Z,23.20
2023-05-22T22:00:56.985Z,23.30
2023-05-22T22:03:23.600Z,23.10
2023-05-22T22:05:50.307Z,23.30
2023-05-22T22:08:17.254Z,23.40
2023-05-22T22:10:44.497Z,23.20
2023-05-22T22:13:11.076Z,23.10
2023-05-22T22:15:37.656Z,23.10
2023-05-22T22:18:05.031Z,23.30
2023-05-22T22:20:43.459Z,23.40
2023-05-22T22:23:11.280Z,23.40
2023-05-22T22:25:39.128Z,23.50
2023-05-22T22:28:06.043Z,23.60
2023-05-22T22:30:32.743Z,23.60
2023-05-22T22:32:59.585Z,23.50
2023-05-22T22:35:26.289Z,23.50
2023-05-22T22:37:52.936Z,23.30
2023-05-22T22:40:19.507Z,23.00
2023-05-22T22:42:46.061Z,22.80
2023-05-22T22:45:12.756Z,22.70
2023-05-22T22:47:39.444Z,22.80
2023-05-22T22:50:07.227Z,22.60
2023-05-22T22:52:33.797Z,22.60
2023-05-22T22:55:01.699Z,22.30
2023-05-22T22:57:28.567Z,22.50
2023-05-22T22:59:55.127Z,22.50
2023-05-22T23:02:21.718Z,22.90
2023-05-22T23:04:48.566Z,22.90
2023-05-22T23:07:15.193Z,22.90
2023-05-22T23:09:41.797Z,22.50
2023-05-22T23:12:09.673Z,22.60
2023-05-22T23:14:37.589Z,22.60
2023-05-22T23:17:04.447Z,22.80
2023-05-22T23:19:31.072Z,22.70
2023-05-22T23:21:57.702Z,22.70
2023-05-22T23:24:24.240Z,22.80
2023-05-22T23:26:52.733Z,22.50
2023-05-22T23:29:19.357Z,22.60
2023-05-22T23:31:47.301Z,22.60
2023-05-22T23:34:14.005Z,22.30
2023-05-22T23:36:40.869Z,21.90
2023-05-22T23:39:07.718Z,22.10
2023-05-22T23:41:35.380Z,21.90
2023-05-22T23:44:02.368Z,22.10
2023-05-22T23:46:29.422Z,22.40
2023-05-22T23:48:56.325Z,22.20
2023-05-22T23:51:23.057Z,21.80
2023-05-22T23:53:49.802Z,21.90
2023-05-22T23:56:16.930Z,22.00
2023-05-22T23:58:43.618Z,21.70
